sensor_id;sensor_type;location;lat;lon;timestamp;pressure;altitude;pressure_sealevel;temperature;humidity
80927;BME280;70385;44.538;18.532;2023-08-21T00:00:28;99832.78;;;20.80;100.00
80927;BME280;70385;44.538;18.532;2023-08-21T00:02:55;99841.13;;;20.75;100.00
80927;BME280;70385;44.538;18.532;2023-08-21T00:05:21;99836.91;;;20.73;100.00
80927;BME280;70385;44.538;18.532;2023-08-21T00:07:47;99833.66;;;20.69;100.00
80927;BME280;70385;44.538;18.532;2023-08-21T00:10:17;99843.06;;;20.62;100.00
80927;BME280;70385;44.538;18.532;2023-08-21T00:12:43;99843.31;;;20.59;100.00
80927;BME280;70385;44.538;18.532;2023-08-21T00:15:09;99840.91;;;20.56;100.00
80927;BME280;70385;44.538;18.532;2023-08-21T00:17:35;99830.63;;;20.51;100.00
80927;BME280;70385;44.538;18.532;2023-08-21T00:20:01;99834.63;;;20.46;100.00
80927;BME280;70385;44.538;18.532;2023-08-21T00:22:31;99842.59;;;20.46;100.00
80927;BME280;70385;44.538;18.532;2023-08-21T00:24:58;99846.44;;;20.42;100.00
80927;BME280;70385;44.538;18.532;2023-08-21T00:27:24;99843.03;;;20.40;100.00
80927;BME280;70385;44.538;18.532;2023-08-21T00:29:49;99834.31;;;20.38;100.00
80927;BME280;70385;44.538;18.532;2023-08-21T00:32:16;99837.09;;;20.36;100.00
80927;BME280;70385;44.538;18.532;2023-08-21T00:34:46;99847.97;;;20.33;100.00
80927;BME280;70385;44.538;18.532;2023-08-21T00:37:14;99849.19;;;20.29;100.00
80927;BME280;70385;44.538;18.532;2023-08-21T00:39:43;99859.94;;;20.27;100.00
80927;BME280;70385;44.538;18.532;2023-08-21T00:42:12;99855.72;;;20.25;100.00
80927;BME280;70385;44.538;18.532;2023-08-21T00:44:43;99851.44;;;20.22;100.00
80927;BME280;70385;44.538;18.532;2023-08-21T00:47:09;99847.81;;;20.23;100.00
80927;BME280;70385;44.538;18.532;2023-08-21T00:49:39;99851.25;;;20.25;100.00
80927;BME280;70385;44.538;18.532;2023-08-21T00:52:07;99843.34;;;20.24;100.00
80927;BME280;70385;44.538;18.532;2023-08-21T00:54:36;99840.69;;;20.24;100.00
80927;BME280;70385;44.538;18.532;2023-08-21T00:57:04;99839.53;;;20.28;100.00
80927;BME280;70385;44.538;18.532;2023-08-21T00:59:30;99840.81;;;20.22;100.00
80927;BME280;70385;44.538;18.532;2023-08-21T01:02:01;99843.09;;;20.16;100.00
80927;BME280;70385;44.538;18.532;2023-08-21T01:04:27;99848.06;;;20.09;100.00
80927;BME280;70385;44.538;18.532;2023-08-21T01:06:53;99844.78;;;20.06;100.00
80927;BME280;70385;44.538;18.532;2023-08-21T01:11:50;99850.31;;;20.02;100.00
80927;BME280;70385;44.538;18.532;2023-08-21T01:17:18;99858.38;;;19.90;100.00
80927;BME280;70385;44.538;18.532;2023-08-21T01:19:48;99857.66;;;19.88;100.00
80927;BME280;70385;44.538;18.532;2023-08-21T01:22:15;99854.25;;;19.86;100.00
80927;BME280;70385;44.538;18.532;2023-08-21T01:24:41;99856.03;;;19.85;100.00
80927;BME280;70385;44.538;18.532;2023-08-21T01:27:07;99851.81;;;19.83;100.00
80927;BME280;70385;44.538;18.532;2023-08-21T01:29:37;99853.88;;;19.79;100.00
80927;BME280;70385;44.538;18.532;2023-08-21T01:32:09;99855.06;;;19.75;100.00
80927;BME280;70385;44.538;18.532;2023-08-21T01:34:37;99858.78;;;19.73;100.00
80927;BME280;70385;44.538;18.532;2023-08-21T01:37:04;99858.78;;;19.73;100.00
80927;BME280;70385;44.538;18.532;2023-08-21T01:39:33;99859.03;;;19.69;100.00
80927;BME280;70385;44.538;18.532;2023-08-21T01:41:59;99859.88;;;19.70;100.00
80927;BME280;70385;44.538;18.532;2023-08-21T01:44:28;99865.31;;;19.68;100.00
80927;BME280;70385;44.538;18.532;2023-08-21T01:46:56;99858.72;;;19.61;100.00
80927;BME280;70385;44.538;18.532;2023-08-21T01:49:24;99854.84;;;19.54;100.00
80927;BME280;70385;44.538;18.532;2023-08-21T01:51:50;99859.09;;;19.57;100.00
80927;BME280;70385;44.538;18.532;2023-08-21T01:54:16;99859.09;;;19.57;100.00
80927;BME280;70385;44.538;18.532;2023-08-21T01:56:41;99857.50;;;19.54;100.00
80927;BME280;70385;44.538;18.532;2023-08-21T01:59:09;99861.44;;;19.49;100.00
80927;BME280;70385;44.538;18.532;2023-08-21T02:01:37;99851.13;;;19.44;100.00
80927;BME280;70385;44.538;18.532;2023-08-21T02:04:02;99851.38;;;19.41;100.00
80927;BME280;70385;44.538;18.532;2023-08-21T02:06:28;99860.41;;;19.38;100.00
80927;BME280;70385;44.538;18.532;2023-08-21T02:08:54;99862.31;;;19.36;100.00
80927;BME280;70385;44.538;18.532;2023-08-21T02:11:20;99865.59;;;19.40;100.00
80927;BME280;70385;44.538;18.532;2023-08-21T02:13:46;99859.31;;;19.41;100.00
80927;BME280;70385;44.538;18.532;2023-08-21T02:16:16;99862.72;;;19.43;100.00
80927;BME280;70385;44.538;18.532;2023-08-21T02:18:42;99859.09;;;19.44;100.00
80927;BME280;70385;44.538;18.532;2023-08-21T02:21:08;99859.31;;;19.41;100.00
80927;BME280;70385;44.538;18.532;2023-08-21T02:23:34;99864.41;;;19.44;100.00
80927;BME280;70385;44.538;18.532;2023-08-21T02:25:59;99865.06;;;19.48;100.00
80927;BME280;70385;44.538;18.532;2023-08-21T02:28:26;99860.34;;;19.51;100.00
80927;BME280;70385;44.538;18.532;2023-08-21T02:30:57;99854.63;;;19.57;100.00
80927;BME280;70385;44.538;18.532;2023-08-21T02:33:24;99855.22;;;19.61;100.00
80927;BME280;70385;44.538;18.532;2023-08-21T02:35:49;99853.44;;;19.61;100.00
80927;BME280;70385;44.538;18.532;2023-08-21T02:38:18;99850.78;;;19.61;100.00
80927;BME280;70385;44.538;18.532;2023-08-21T02:40:45;99852.22;;;19.65;100.00
80927;BME280;70385;44.538;18.532;2023-08-21T02:43:12;99849.56;;;19.65;100.00
80927;BME280;70385;44.538;18.532;2023-08-21T02:45:38;99856.50;;;19.68;100.00
80927;BME280;70385;44.538;18.532;2023-08-21T02:48:06;99862.34;;;19.60;100.00
80927;BME280;70385;44.538;18.532;2023-08-21T02:50:33;99858.72;;;19.61;100.00
80927;BME280;70385;44.538;18.532;2023-08-21T02:53:00;99860.16;;;19.54;100.00
80927;BME280;70385;44.538;18.532;2023-08-21T02:55:26;99855.91;;;19.52;100.00
80927;BME280;70385;44.538;18.532;2023-08-21T02:57:51;99858.88;;;19.47;100.00
80927;BME280;70385;44.538;18.532;2023-08-21T03:00:17;99858.13;;;19.45;100.00
80927;BME280;70385;44.538;18.532;2023-08-21T03:02:43;99857.16;;;19.46;100.00
80927;BME280;70385;44.538;18.532;2023-08-21T03:05:13;99854.97;;;19.40;100.00
80927;BME280;70385;44.538;18.532;2023-08-21T03:07:39;99862.31;;;19.36;100.00
80927;BME280;70385;44.538;18.532;2023-08-21T03:10:09;99858.09;;;19.34;100.00
80927;BME280;70385;44.538;18.532;2023-08-21T03:12:36;99854.25;;;19.38;100.00
80927;BME280;70385;44.538;18.532;2023-08-21T03:15:03;99857.34;;;19.32;100.00
80927;BME280;70385;44.538;18.532;2023-08-21T03:17:29;99856.09;;;19.25;100.00
80927;BME280;70385;44.538;18.532;2023-08-21T03:19:54;99859.81;;;19.22;100.00
80927;BME280;70385;44.538;18.532;2023-08-21T03:22:22;99855.06;;;19.15;100.00
80927;BME280;70385;44.538;18.532;2023-08-21T03:24:49;99856.25;;;19.10;100.00
80927;BME280;70385;44.538;18.532;2023-08-21T03:27:15;99864.34;;;19.09;100.00
80927;BME280;70385;44.538;18.532;2023-08-21T03:29:45;99863.69;;;19.05;100.00
80927;BME280;70385;44.538;18.532;2023-08-21T03:32:16;99863.44;;;19.08;100.00
80927;BME280;70385;44.538;18.532;2023-08-21T03:34:48;99868.56;;;19.12;100.00
80927;BME280;70385;44.538;18.532;2023-08-21T03:37:14;99858.81;;;18.99;100.00
80927;BME280;70385;44.538;18.532;2023-08-21T03:39:40;99869.53;;;18.98;100.00
80927;BME280;70385;44.538;18.532;2023-08-21T03:42:10;99862.66;;;18.95;100.00
80927;BME280;70385;44.538;18.532;2023-08-21T03:44:37;99861.06;;;18.93;100.00
80927;BME280;70385;44.538;18.532;2023-08-21T03:47:06;99865.72;;;18.89;100.00
80927;BME280;70385;44.538;18.532;2023-08-21T03:49:44;99869.44;;;18.87;100.00
80927;BME280;70385;44.538;18.532;2023-08-21T03:52:13;99872.31;;;18.84;100.00
80927;BME280;70385;44.538;18.532;2023-08-21T03:54:48;99882.19;;;18.82;100.00
80927;BME280;70385;44.538;18.532;2023-08-21T03:57:14;99878.59;;;18.83;100.00
80927;BME280;70385;44.538;18.532;2023-08-21T03:59:44;99879.31;;;18.85;100.00
80927;BME280;70385;44.538;18.532;2023-08-21T04:02:17;99881.13;;;18.84;100.00
80927;BME280;70385;44.538;18.532;2023-08-21T04:04:43;99876.78;;;18.83;100.00
80927;BME280;70385;44.538;18.532;2023-08-21T04:07:10;99873.06;;;18.86;100.00
80927;BME280;70385;44.538;18.532;2023-08-21T04:09:39;99879.44;;;18.83;100.00
80927;BME280;70385;44.538;18.532;2023-08-21T04:12:05;99881.56;;;18.78;100.00
80927;BME280;70385;44.538;18.532;2023-08-21T04:14:31;99890.25;;;18.80;100.00
80927;BME280;70385;44.538;18.532;2023-08-21T04:16:57;99888.44;;;18.80;100.00
80927;BME280;70385;44.538;18.532;2023-08-21T04:19:23;99892.06;;;18.79;100.00
80927;BME280;70385;44.538;18.532;2023-08-21T04:21:50;99889.63;;;18.76;100.00
80927;BME280;70385;44.538;18.532;2023-08-21T04:24:19;99890.25;;;18.80;100.00
80927;BME280;70385;44.538;18.532;2023-08-21T04:26:46;99898.72;;;18.85;100.00
80927;BME280;70385;44.538;18.532;2023-08-21T04:29:12;99887.03;;;18.88;100.00
80927;BME280;70385;44.538;18.532;2023-08-21T04:31:38;99891.81;;;18.95;100.00
80927;BME280;70385;44.538;18.532;2023-08-21T04:34:05;99880.03;;;18.99;100.00
80927;BME280;70385;44.538;18.532;2023-08-21T04:36:32;99893.41;;;18.98;100.00
80927;BME280;70385;44.538;18.532;2023-08-21T04:38:59;99895.72;;;19.02;100.00
80927;BME280;70385;44.538;18.532;2023-08-21T04:41:25;99894.25;;;19.11;100.00
80927;BME280;70385;44.538;18.532;2023-08-21T04:43:51;99896.34;;;19.19;100.00
80927;BME280;70385;44.538;18.532;2023-08-21T04:46:17;99900.22;;;19.26;100.00
80927;BME280;70385;44.538;18.532;2023-08-21T04:48:49;99899.81;;;19.32;100.00
80927;BME280;70385;44.538;18.532;2023-08-21T04:51:17;99902.47;;;19.32;100.00
80927;BME280;70385;44.538;18.532;2023-08-21T04:53:44;99897.44;;;19.40;100.00
80927;BME280;70385;44.538;18.532;2023-08-21T04:56:16;99908.13;;;19.51;100.00
80927;BME280;70385;44.538;18.532;2023-08-21T04:58:44;99914.25;;;19.64;100.00
80927;BME280;70385;44.538;18.532;2023-08-21T05:01:10;99923.47;;;19.72;100.00
80927;BME280;70385;44.538;18.532;2023-08-21T05:03:42;99922.06;;;19.79;100.00
80927;BME280;70385;44.538;18.532;2023-08-21T05:06:09;99920.13;;;19.81;100.00
80927;BME280;70385;44.538;18.532;2023-08-21T05:08:35;99917.31;;;19.95;100.00
80927;BME280;70385;44.538;18.532;2023-08-21T05:11:07;99921.31;;;20.00;100.00
80927;BME280;70385;44.538;18.532;2023-08-21T05:13:35;99934.16;;;20.07;100.00
80927;BME280;70385;44.538;18.532;2023-08-21T05:16:09;99926.94;;;20.20;100.00
80927;BME280;70385;44.538;18.532;2023-08-21T05:18:37;99919.84;;;20.31;100.00
80927;BME280;70385;44.538;18.532;2023-08-21T05:21:03;99922.50;;;20.31;100.00
80927;BME280;70385;44.538;18.532;2023-08-21T05:23:30;99921.53;;;20.33;100.00
80927;BME280;70385;44.538;18.532;2023-08-21T05:26:09;99928.72;;;20.43;100.00
80927;BME280;70385;44.538;18.532;2023-08-21T05:28:46;99929.34;;;20.58;100.00
80927;BME280;70385;44.538;18.532;2023-08-21T05:31:12;99936.63;;;20.67;100.00
80927;BME280;70385;44.538;18.532;2023-08-21T05:33:59;99929.84;;;20.63;100.00
80927;BME280;70385;44.538;18.532;2023-08-21T05:36:28;99933.84;;;20.80;100.00
80927;BME280;70385;44.538;18.532;2023-08-21T05:39:01;99931.44;;;20.77;100.00
80927;BME280;70385;44.538;18.532;2023-08-21T05:41:33;99945.72;;;20.98;100.00
80927;BME280;70385;44.538;18.532;2023-08-21T05:44:02;99934.72;;;21.14;100.00
80927;BME280;70385;44.538;18.532;2023-08-21T05:46:28;99933.06;;;21.24;100.00
80927;BME280;70385;44.538;18.532;2023-08-21T05:48:58;99939.56;;;21.31;100.00
80927;BME280;70385;44.538;18.532;2023-08-21T05:51:25;99941.63;;;21.39;100.00
80927;BME280;70385;44.538;18.532;2023-08-21T05:53:54;99938.38;;;21.24;100.00
80927;BME280;70385;44.538;18.532;2023-08-21T05:56:26;99945.84;;;21.52;100.00
80927;BME280;70385;44.538;18.532;2023-08-21T05:58:54;99947.50;;;21.65;99.38
80927;BME280;70385;44.538;18.532;2023-08-21T06:01:24;99943.50;;;21.70;99.69
80927;BME280;70385;44.538;18.532;2023-08-21T06:03:50;99940.94;;;21.80;99.20
80927;BME280;70385;44.538;18.532;2023-08-21T06:06:26;99940.19;;;21.78;99.79
80927;BME280;70385;44.538;18.532;2023-08-21T06:11:40;99938.88;;;22.16;96.56
80927;BME280;70385;44.538;18.532;2023-08-21T06:14:14;99941.34;;;22.07;96.76
80927;BME280;70385;44.538;18.532;2023-08-21T06:16:44;99942.09;;;21.98;96.38
80927;BME280;70385;44.538;18.532;2023-08-21T06:19:10;99941.50;;;22.27;95.92
80927;BME280;70385;44.538;18.532;2023-08-21T06:21:36;99944.56;;;22.43;95.86
80927;BME280;70385;44.538;18.532;2023-08-21T06:24:02;99944.97;;;22.38;94.74
80927;BME280;70385;44.538;18.532;2023-08-21T06:26:28;99945.81;;;22.39;95.35
80927;BME280;70385;44.538;18.532;2023-08-21T06:28:54;99945.69;;;22.61;95.31
80927;BME280;70385;44.538;18.532;2023-08-21T06:31:20;99948.16;;;22.95;92.24
80927;BME280;70385;44.538;18.532;2023-08-21T06:33:46;99943.66;;;22.54;93.38
80927;BME280;70385;44.538;18.532;2023-08-21T06:36:15;99949.31;;;22.60;94.16
80927;BME280;70385;44.538;18.532;2023-08-21T06:38:42;99946.06;;;22.78;93.36
80927;BME280;70385;44.538;18.532;2023-08-21T06:41:09;99938.19;;;22.76;93.60
80927;BME280;70385;44.538;18.532;2023-08-21T06:43:38;99946.06;;;22.98;93.01
80927;BME280;70385;44.538;18.532;2023-08-21T06:46:05;99940.81;;;23.18;91.90
80927;BME280;70385;44.538;18.532;2023-08-21T06:48:31;99939.25;;;23.15;91.62
80927;BME280;70385;44.538;18.532;2023-08-21T06:50:57;99941.78;;;23.17;92.76
80927;BME280;70385;44.538;18.532;2023-08-21T06:53:26;99939.28;;;23.25;91.51
80927;BME280;70385;44.538;18.532;2023-08-21T06:55:53;99937.31;;;23.27;91.45
80927;BME280;70385;44.538;18.532;2023-08-21T06:58:20;99941.38;;;23.61;91.70
80927;BME280;70385;44.538;18.532;2023-08-21T07:00:50;99953.81;;;23.91;88.99
80927;BME280;70385;44.538;18.532;2023-08-21T07:03:23;99952.09;;;23.90;89.28
80927;BME280;70385;44.538;18.532;2023-08-21T07:05:57;99950.69;;;24.06;88.31
80927;BME280;70385;44.538;18.532;2023-08-21T07:11:38;99942.84;;;24.14;87.85
80927;BME280;70385;44.538;18.532;2023-08-21T07:17:18;99945.88;;;24.67;85.39
80927;BME280;70385;44.538;18.532;2023-08-21T07:19:44;99942.72;;;24.91;84.74
80927;BME280;70385;44.538;18.532;2023-08-21T07:22:10;99945.13;;;24.94;84.80
80927;BME280;70385;44.538;18.532;2023-08-21T07:24:44;99943.72;;;25.00;84.01
80927;BME280;70385;44.538;18.532;2023-08-21T07:27:10;99943.44;;;24.83;85.57
80927;BME280;70385;44.538;18.532;2023-08-21T07:29:36;99946.41;;;24.90;84.43
80927;BME280;70385;44.538;18.532;2023-08-21T07:32:02;99946.66;;;24.87;83.50
80927;BME280;70385;44.538;18.532;2023-08-21T07:34:28;99950.31;;;25.05;82.14
80927;BME280;70385;44.538;18.532;2023-08-21T07:36:57;99947.44;;;25.17;80.76
80927;BME280;70385;44.538;18.532;2023-08-21T07:39:23;99942.59;;;25.30;82.47
80927;BME280;70385;44.538;18.532;2023-08-21T07:41:49;99940.53;;;25.51;80.57
80927;BME280;70385;44.538;18.532;2023-08-21T07:44:20;99941.28;;;25.61;80.90
80927;BME280;70385;44.538;18.532;2023-08-21T07:46:46;99938.44;;;25.63;80.20
80927;BME280;70385;44.538;18.532;2023-08-21T07:49:18;99936.50;;;25.65;80.64
80927;BME280;70385;44.538;18.532;2023-08-21T07:51:44;99936.66;;;25.81;79.32
80927;BME280;70385;44.538;18.532;2023-08-21T07:54:17;99936.50;;;25.83;78.75
80927;BME280;70385;44.538;18.532;2023-08-21T07:56:56;99936.38;;;26.02;79.00
80927;BME280;70385;44.538;18.532;2023-08-21T07:59:22;99928.47;;;25.83;78.02
80927;BME280;70385;44.538;18.532;2023-08-21T08:01:48;99941.44;;;26.05;77.00
80927;BME280;70385;44.538;18.532;2023-08-21T08:04:15;99935.09;;;26.06;77.10
80927;BME280;70385;44.538;18.532;2023-08-21T08:06:41;99928.94;;;25.96;78.34
80927;BME280;70385;44.538;18.532;2023-08-21T08:09:07;99930.88;;;26.04;77.82
80927;BME280;70385;44.538;18.532;2023-08-21T08:11:32;99929.31;;;26.37;76.57
80927;BME280;70385;44.538;18.532;2023-08-21T08:14:01;99924.34;;;26.93;74.55
80927;BME280;70385;44.538;18.532;2023-08-21T08:16:27;99919.09;;;27.18;73.70
80927;BME280;70385;44.538;18.532;2023-08-21T08:18:52;99914.16;;;27.39;73.32
80927;BME280;70385;44.538;18.532;2023-08-21T08:21:18;99919.84;;;27.36;72.75
80927;BME280;70385;44.538;18.532;2023-08-21T08:23:44;99921.16;;;27.24;71.84
80927;BME280;70385;44.538;18.532;2023-08-21T08:26:10;99915.63;;;27.76;70.68
80927;BME280;70385;44.538;18.532;2023-08-21T08:28:36;99921.25;;;27.48;70.61
80927;BME280;70385;44.538;18.532;2023-08-21T08:31:02;99914.63;;;27.85;70.65
80927;BME280;70385;44.538;18.532;2023-08-21T08:33:31;99921.72;;;28.10;70.78
80927;BME280;70385;44.538;18.532;2023-08-21T08:36:01;99921.06;;;28.00;68.85
80927;BME280;70385;44.538;18.532;2023-08-21T08:38:28;99923.22;;;27.97;69.48
80927;BME280;70385;44.538;18.532;2023-08-21T08:40:54;99922.41;;;28.29;68.22
80927;BME280;70385;44.538;18.532;2023-08-21T08:43:24;99917.34;;;28.50;66.37
80927;BME280;70385;44.538;18.532;2023-08-21T08:45:53;99914.50;;;28.60;66.56
80927;BME280;70385;44.538;18.532;2023-08-21T08:48:20;99918.03;;;28.03;68.01
80927;BME280;70385;44.538;18.532;2023-08-21T08:50:47;99909.28;;;28.18;67.71
80927;BME280;70385;44.538;18.532;2023-08-21T08:53:15;99902.22;;;28.33;68.52
80927;BME280;70385;44.538;18.532;2023-08-21T08:55:41;99902.88;;;28.10;68.24
80927;BME280;70385;44.538;18.532;2023-08-21T08:58:07;99915.00;;;28.23;68.42
80927;BME280;70385;44.538;18.532;2023-08-21T09:00:33;99912.28;;;28.15;67.27
80927;BME280;70385;44.538;18.532;2023-08-21T09:02:58;99906.06;;;28.63;65.63
80927;BME280;70385;44.538;18.532;2023-08-21T09:05:27;99900.72;;;29.10;64.24
80927;BME280;70385;44.538;18.532;2023-08-21T09:08:10;99901.00;;;29.23;62.72
80927;BME280;70385;44.538;18.532;2023-08-21T09:10:43;99902.97;;;29.38;65.69
80927;BME280;70385;44.538;18.532;2023-08-21T09:13:14;99903.06;;;29.83;60.63
80927;BME280;70385;44.538;18.532;2023-08-21T09:15:42;99888.19;;;29.65;60.86
80927;BME280;70385;44.538;18.532;2023-08-21T09:18:09;99889.19;;;29.86;60.32
80927;BME280;70385;44.538;18.532;2023-08-21T09:20:38;99894.47;;;30.26;59.66
80927;BME280;70385;44.538;18.532;2023-08-21T09:23:15;99883.16;;;30.07;59.73
80927;BME280;70385;44.538;18.532;2023-08-21T09:25:45;99882.78;;;30.33;60.11
80927;BME280;70385;44.538;18.532;2023-08-21T09:28:20;99878.59;;;30.08;60.01
80927;BME280;70385;44.538;18.532;2023-08-21T09:30:47;99884.47;;;30.34;59.16
80927;BME280;70385;44.538;18.532;2023-08-21T09:33:18;99877.09;;;30.43;58.80
80927;BME280;70385;44.538;18.532;2023-08-21T09:35:44;99873.22;;;30.08;59.09
80927;BME280;70385;44.538;18.532;2023-08-21T09:38:12;99866.00;;;30.23;59.17
80927;BME280;70385;44.538;18.532;2023-08-21T09:40:40;99863.41;;;30.67;59.22
80927;BME280;70385;44.538;18.532;2023-08-21T09:43:10;99854.34;;;30.75;58.01
80927;BME280;70385;44.538;18.532;2023-08-21T09:45:48;99858.09;;;30.74;57.67
80927;BME280;70385;44.538;18.532;2023-08-21T09:48:18;99860.28;;;31.00;58.83
80927;BME280;70385;44.538;18.532;2023-08-21T09:50:46;99857.31;;;31.24;57.58
80927;BME280;70385;44.538;18.532;2023-08-21T09:53:14;99853.47;;;31.04;56.85
80927;BME280;70385;44.538;18.532;2023-08-21T09:55:40;99854.06;;;31.50;55.63
80927;BME280;70385;44.538;18.532;2023-08-21T09:58:11;99853.78;;;31.24;55.98
80927;BME280;70385;44.538;18.532;2023-08-21T10:00:39;99854.28;;;31.70;54.32
80927;BME280;70385;44.538;18.532;2023-08-21T10:03:10;99845.38;;;31.19;55.87
80927;BME280;70385;44.538;18.532;2023-08-21T10:05:37;99844.03;;;31.44;55.73
80927;BME280;70385;44.538;18.532;2023-08-21T10:08:04;99842.50;;;31.78;53.29
80927;BME280;70385;44.538;18.532;2023-08-21T10:10:32;99839.56;;;31.36;55.33
80927;BME280;70385;44.538;18.532;2023-08-21T10:12:59;99837.41;;;31.47;56.47
80927;BME280;70385;44.538;18.532;2023-08-21T10:15:31;99831.78;;;31.48;56.09
80927;BME280;70385;44.538;18.532;2023-08-21T10:17:58;99835.53;;;31.68;54.38
80927;BME280;70385;44.538;18.532;2023-08-21T10:20:27;99818.78;;;31.58;55.02
80927;BME280;70385;44.538;18.532;2023-08-21T10:23:01;99826.84;;;31.94;54.63
80927;BME280;70385;44.538;18.532;2023-08-21T10:25:27;99820.16;;;32.18;54.00
80927;BME280;70385;44.538;18.532;2023-08-21T10:27:54;99821.97;;;32.33;52.82
80927;BME280;70385;44.538;18.532;2023-08-21T10:30:21;99814.34;;;32.43;52.58
80927;BME280;70385;44.538;18.532;2023-08-21T10:32:52;99813.94;;;32.80;50.89
80927;BME280;70385;44.538;18.532;2023-08-21T10:35:19;99821.97;;;32.67;51.35
80927;BME280;70385;44.538;18.532;2023-08-21T10:43:40;99805.28;;;33.05;51.05
80927;BME280;70385;44.538;18.532;2023-08-21T10:46:10;99806.16;;;33.18;49.29
80927;BME280;70385;44.538;18.532;2023-08-21T10:48:39;99803.19;;;33.07;49.60
80927;BME280;70385;44.538;18.532;2023-08-21T10:51:10;99807.72;;;32.86;50.14
80927;BME280;70385;44.538;18.532;2023-08-21T10:53:40;99801.69;;;33.59;50.07
80927;BME280;70385;44.538;18.532;2023-08-21T10:56:13;99798.31;;;33.43;47.83
80927;BME280;70385;44.538;18.532;2023-08-21T10:58:42;99801.50;;;34.06;46.09
80927;BME280;70385;44.538;18.532;2023-08-21T11:01:12;99793.56;;;34.05;45.10
80927;BME280;70385;44.538;18.532;2023-08-21T11:03:46;99797.50;;;34.55;44.19
80927;BME280;70385;44.538;18.532;2023-08-21T11:06:24;99797.25;;;34.63;44.42
80927;BME280;70385;44.538;18.532;2023-08-21T11:08:49;99792.53;;;33.86;47.09
80927;BME280;70385;44.538;18.532;2023-08-21T11:11:16;99789.97;;;34.31;45.09
80927;BME280;70385;44.538;18.532;2023-08-21T11:16:35;99777.06;;;34.06;45.26
80927;BME280;70385;44.538;18.532;2023-08-21T11:19:03;99784.56;;;34.24;46.09
80927;BME280;70385;44.538;18.532;2023-08-21T11:21:32;99796.25;;;33.65;44.67
80927;BME280;70385;44.538;18.532;2023-08-21T11:24:07;99787.69;;;33.48;44.91
80927;BME280;70385;44.538;18.532;2023-08-21T11:26:33;99783.66;;;33.31;45.16
80927;BME280;70385;44.538;18.532;2023-08-21T11:28:59;99780.75;;;32.78;46.34
80927;BME280;70385;44.538;18.532;2023-08-21T11:31:30;99779.16;;;32.90;46.85
80927;BME280;70385;44.538;18.532;2023-08-21T11:33:56;99780.25;;;33.03;45.17
80927;BME280;70385;44.538;18.532;2023-08-21T11:36:22;99774.75;;;32.83;45.76
80927;BME280;70385;44.538;18.532;2023-08-21T11:39:01;99779.56;;;33.62;46.31
80927;BME280;70385;44.538;18.532;2023-08-21T11:41:31;99770.28;;;34.62;43.59
80927;BME280;70385;44.538;18.532;2023-08-21T11:44:02;99779.09;;;34.57;42.76
80927;BME280;70385;44.538;18.532;2023-08-21T11:46:34;99773.75;;;35.27;43.34
80927;BME280;70385;44.538;18.532;2023-08-21T11:51:55;99764.31;;;34.98;41.07
80927;BME280;70385;44.538;18.532;2023-08-21T11:54:22;99767.44;;;34.37;42.00
80927;BME280;70385;44.538;18.532;2023-08-21T11:56:52;99769.09;;;33.52;43.44
80927;BME280;70385;44.538;18.532;2023-08-21T11:59:27;99774.56;;;33.65;43.69
80927;BME280;70385;44.538;18.532;2023-08-21T12:02:10;99764.13;;;33.56;43.40
80927;BME280;70385;44.538;18.532;2023-08-21T12:05:00;99760.38;;;33.57;43.45
80927;BME280;70385;44.538;18.532;2023-08-21T12:07:33;99761.63;;;34.00;42.97
80927;BME280;70385;44.538;18.532;2023-08-21T12:10:03;99754.97;;;33.96;42.21
80927;BME280;70385;44.538;18.532;2023-08-21T12:12:33;99756.16;;;34.27;41.75
80927;BME280;70385;44.538;18.532;2023-08-21T12:14:59;99754.06;;;34.42;40.85
80927;BME280;70385;44.538;18.532;2023-08-21T12:17:25;99747.47;;;34.69;40.62
80927;BME280;70385;44.538;18.532;2023-08-21T12:20:04;99754.22;;;35.05;40.55
80927;BME280;70385;44.538;18.532;2023-08-21T12:22:39;99745.16;;;34.73;41.00
80927;BME280;70385;44.538;18.532;2023-08-21T12:25:13;99734.34;;;35.05;40.39
80927;BME280;70385;44.538;18.532;2023-08-21T12:31:21;99740.56;;;34.74;40.32
80927;BME280;70385;44.538;18.532;2023-08-21T12:33:47;99742.03;;;35.77;38.26
80927;BME280;70385;44.538;18.532;2023-08-21T12:36:17;99730.19;;;35.34;39.43
80927;BME280;70385;44.538;18.532;2023-08-21T12:38:53;99723.81;;;34.77;39.93
80927;BME280;70385;44.538;18.532;2023-08-21T12:41:23;99722.88;;;34.51;41.79
80927;BME280;70385;44.538;18.532;2023-08-21T12:43:54;99720.00;;;34.33;41.57
80927;BME280;70385;44.538;18.532;2023-08-21T12:46:27;99728.56;;;33.31;43.31
80927;BME280;70385;44.538;18.532;2023-08-21T12:48:59;99719.19;;;33.20;44.28
80927;BME280;70385;44.538;18.532;2023-08-21T12:51:29;99724.44;;;32.74;45.30
80927;BME280;70385;44.538;18.532;2023-08-21T12:53:58;99724.31;;;32.95;45.44
80927;BME280;70385;44.538;18.532;2023-08-21T12:56:26;99716.38;;;32.80;45.19
80927;BME280;70385;44.538;18.532;2023-08-21T12:59:05;99714.16;;;32.56;46.39
80927;BME280;70385;44.538;18.532;2023-08-21T13:01:37;99707.84;;;32.42;45.22
80927;BME280;70385;44.538;18.532;2023-08-21T13:04:04;99713.94;;;32.57;44.08
80927;BME280;70385;44.538;18.532;2023-08-21T13:06:33;99715.22;;;33.29;43.01
80927;BME280;70385;44.538;18.532;2023-08-21T13:09:00;99709.84;;;33.62;41.58
80927;BME280;70385;44.538;18.532;2023-08-21T13:11:29;99700.53;;;34.43;40.19
80927;BME280;70385;44.538;18.532;2023-08-21T13:14:05;99698.88;;;34.93;37.29
80927;BME280;70385;44.538;18.532;2023-08-21T13:16:33;99696.88;;;35.13;36.82
80927;BME280;70385;44.538;18.532;2023-08-21T13:19:04;99689.97;;;34.66;38.48
80927;BME280;70385;44.538;18.532;2023-08-21T13:21:30;99694.28;;;34.87;38.52